Time;durP1;ratioP1;P1;durP2;ratioP2;P2;SDS_P1;SDS_P2;PMS_P1;PMS_P2;Temp;Humidity;BMP_temperature;BMP_pressure;BME280_temperature;BME280_humidity;BME280_pressure;Samples;Min_cycle;Max_cycle;Signal;HPM_P1;HPM_P2
2021/01/20 00:00:37;;;;;;;7.83;6.73;;;1.80;99.90;;;;;;4951365;29;20561;-26
2021/01/20 00:03:04;;;;;;;7.83;7.13;;;1.80;99.90;;;;;;4950597;29;20632;-27
2021/01/20 00:05:31;;;;;;;8.87;7.50;;;1.80;99.90;;;;;;4952039;29;20446;-26
2021/01/20 00:07:58;;;;;;;8.47;7.00;;;1.80;99.90;;;;;;4950599;29;20442;-26
2021/01/20 00:10:24;;;;;;;7.00;6.40;;;1.80;99.90;;;;;;4950227;29;20500;-26
2021/01/20 00:12:51;;;;;;;7.47;6.70;;;1.80;99.90;;;;;;4952121;29;20450;-25
2021/01/20 00:15:21;;;;;;;8.10;7.30;;;1.80;99.90;;;;;;4933271;29;20442;-26
2021/01/20 00:17:48;;;;;;;9.90;8.70;;;1.70;99.90;;;;;;4951142;29;20458;-26
2021/01/20 00:20:15;;;;;;;8.53;7.60;;;1.70;99.90;;;;;;4949955;29;20876;-26
2021/01/20 00:22:42;;;;;;;8.30;7.50;;;1.70;99.90;;;;;;4951077;29;20513;-26
2021/01/20 00:25:10;;;;;;;9.90;7.63;;;1.70;99.90;;;;;;4951602;29;20821;-25
2021/01/20 00:27:37;;;;;;;8.80;7.90;;;1.70;99.90;;;;;;4951364;29;20521;-26
2021/01/20 00:30:06;;;;;;;11.53;7.67;;;1.70;99.90;;;;;;4951279;29;20532;-27
2021/01/20 00:32:34;;;;;;;8.90;7.50;;;1.70;99.90;;;;;;4950447;29;20804;-26
2021/01/20 00:35:01;;;;;;;8.73;7.83;;;1.70;99.90;;;;;;4950462;29;20442;-27
2021/01/20 00:37:28;;;;;;;14.90;8.33;;;1.70;99.90;;;;;;4950901;29;20615;-25
2021/01/20 00:39:54;;;;;;;9.37;8.07;;;1.70;99.90;;;;;;4951588;29;20758;-25
2021/01/20 00:42:22;;;;;;;9.03;8.00;;;1.70;99.90;;;;;;4951666;29;20888;-25
2021/01/20 00:44:48;;;;;;;10.00;8.47;;;1.70;99.90;;;;;;4950598;29;20480;-27
2021/01/20 00:47:15;;;;;;;15.83;13.00;;;1.70;99.90;;;;;;4951839;29;20864;-25
2021/01/20 00:49:43;;;;;;;13.03;8.97;;;1.70;99.90;;;;;;4951901;29;20549;-27
2021/01/20 00:52:09;;;;;;;10.47;9.03;;;1.70;99.90;;;;;;4950511;29;20939;-26
2021/01/20 00:54:36;;;;;;;11.97;9.00;;;1.60;99.90;;;;;;4951013;29;20454;-26
2021/01/20 00:57:04;;;;;;;11.20;10.10;;;1.60;99.90;;;;;;4950157;28;20442;-26
2021/01/20 00:59:30;;;;;;;8.70;7.43;;;1.60;99.90;;;;;;4933911;29;20545;-26
2021/01/20 01:01:58;;;;;;;9.50;8.47;;;1.60;99.90;;;;;;4950134;29;20470;-26
2021/01/20 01:04:33;;;;;;;9.00;8.10;;;1.60;99.90;;;;;;4949603;29;20462;-26
2021/01/20 01:07:01;;;;;;;9.70;8.67;;;1.60;99.90;;;;;;4933628;29;20438;-26
2021/01/20 01:09:28;;;;;;;10.07;7.60;;;1.60;99.90;;;;;;4948161;29;20840;-25
2021/01/20 01:11:55;;;;;;;12.07;8.80;;;1.60;99.90;;;;;;4949842;29;20778;-26
2021/01/20 01:14:22;;;;;;;8.63;7.20;;;1.50;99.90;;;;;;4932886;29;20504;-26
2021/01/20 01:17:09;;;;;;;11.40;8.63;;;1.50;99.90;;;;;;4951188;29;20532;-26
2021/01/20 01:19:45;;;;;;;10.13;8.30;;;1.50;99.90;;;;;;4951899;29;20720;-26
2021/01/20 01:22:13;;;;;;;12.47;10.47;;;1.50;99.90;;;;;;4952010;29;20516;-26
2021/01/20 01:24:42;;;;;;;11.87;9.67;;;1.50;99.90;;;;;;4932314;29;20541;-26
2021/01/20 01:27:09;;;;;;;12.80;10.33;;;1.50;99.90;;;;;;4931316;29;20927;-26
2021/01/20 01:29:36;;;;;;;13.43;10.57;;;1.50;99.90;;;;;;4913781;29;20443;-26
2021/01/20 01:32:11;;;;;;;10.70;8.80;;;1.40;99.90;;;;;;4931428;29;20548;-25
2021/01/20 01:34:39;;;;;;;13.97;9.90;;;1.40;99.90;;;;;;4915318;29;20494;-25
2021/01/20 01:37:08;;;;;;;12.07;9.27;;;1.40;99.90;;;;;;4929658;29;20439;-25
2021/01/20 01:39:58;;;;;;;11.73;9.17;;;1.40;99.90;;;;;;4930621;29;20527;-25
2021/01/20 01:42:27;;;;;;;11.40;9.10;;;1.40;99.90;;;;;;4915342;29;20459;-26
2021/01/20 01:44:55;;;;;;;9.97;8.80;;;1.40;99.90;;;;;;4931513;29;20482;-26
2021/01/20 01:47:21;;;;;;;9.40;8.40;;;1.40;99.90;;;;;;4930356;29;20641;-26
2021/01/20 01:49:56;;;;;;;9.00;8.10;;;1.40;99.90;;;;;;4929682;29;20723;-25
2021/01/20 01:52:24;;;;;;;10.30;8.33;;;1.40;99.90;;;;;;4928009;29;20509;-26
2021/01/20 01:55:15;;;;;;;13.10;8.50;;;1.40;99.90;;;;;;4911229;29;20790;-25
2021/01/20 01:58:01;;;;;;;9.17;8.03;;;1.30;99.90;;;;;;4928899;29;20477;-25
2021/01/20 02:00:28;;;;;;;9.93;8.37;;;1.30;99.90;;;;;;4931371;29;20471;-25
2021/01/20 02:03:07;;;;;;;11.10;8.30;;;1.40;99.90;;;;;;4929852;29;20490;-25
2021/01/20 02:05:35;;;;;;;12.23;10.30;;;1.30;99.90;;;;;;4912647;29;20620;-25
2021/01/20 02:08:04;;;;;;;13.43;11.13;;;1.30;99.90;;;;;;4928392;29;20549;-25
2021/01/20 02:10:38;;;;;;;17.50;12.63;;;1.40;99.90;;;;;;4913922;29;20463;-25
2021/01/20 02:13:27;;;;;;;20.93;13.27;;;1.40;99.90;;;;;;4930397;29;20452;-26
2021/01/20 02:16:19;;;;;;;20.73;12.83;;;1.30;99.90;;;;;;4930156;29;20451;-25
2021/01/20 02:18:52;;;;;;;16.90;10.20;;;1.30;99.90;;;;;;4928711;29;20447;-26
2021/01/20 02:22:10;;;;;;;12.63;10.23;;;1.20;99.90;;;;;;4931337;29;20550;-25
2021/01/20 02:24:57;;;;;;;15.90;10.47;;;1.20;99.90;;;;;;4936191;29;20523;-26
2021/01/20 02:27:59;;;;;;;10.97;9.63;;;1.10;99.90;;;;;;4941402;29;20714;-25
2021/01/20 02:30:29;;;;;;;13.33;9.47;;;1.10;99.90;;;;;;4949248;29;20685;-26
2021/01/20 02:33:05;;;;;;;10.50;9.10;;;1.10;99.90;;;;;;4949725;29;20457;-26
2021/01/20 02:36:03;;;;;;;13.23;9.73;;;1.10;99.90;;;;;;4949179;29;20569;-26
2021/01/20 02:38:40;;;;;;;9.90;8.43;;;1.10;99.90;;;;;;4948533;29;20840;-26
2021/01/20 02:41:09;;;;;;;12.00;8.70;;;1.10;99.90;;;;;;4949352;29;21049;-26
2021/01/20 02:44:11;;;;;;;11.03;8.40;;;1.10;99.90;;;;;;4939048;29;20501;-27
2021/01/20 02:46:51;;;;;;;8.17;7.40;;;1.10;99.90;;;;;;4947933;29;20458;-25
2021/01/20 02:49:38;;;;;;;8.50;7.70;;;1.10;99.90;;;;;;4948211;29;20442;-26
2021/01/20 02:52:14;;;;;;;10.87;7.57;;;1.10;99.90;;;;;;4947853;29;20497;-25
2021/01/20 02:55:02;;;;;;;8.50;7.73;;;1.00;99.90;;;;;;4949901;29;20446;-25
2021/01/20 02:58:01;;;;;;;11.13;8.97;;;1.00;99.90;;;;;;4950453;29;20580;-26
2021/01/20 03:00:35;;;;;;;9.13;8.23;;;1.00;99.90;;;;;;4933434;29;20450;-25
2021/01/20 03:03:12;;;;;;;9.23;7.77;;;1.00;99.90;;;;;;4950474;29;20520;-25
2021/01/20 03:05:42;;;;;;;9.30;7.97;;;1.00;99.90;;;;;;4932571;29;20443;-25
2021/01/20 03:08:09;;;;;;;10.00;8.50;;;1.00;99.90;;;;;;4950331;29;20448;-26
2021/01/20 03:10:37;;;;;;;12.13;9.10;;;1.00;99.90;;;;;;4950725;29;20533;-25
2021/01/20 03:13:04;;;;;;;9.60;7.90;;;1.00;99.90;;;;;;4949512;29;20703;-26
2021/01/20 03:15:35;;;;;;;17.00;9.13;;;1.00;99.90;;;;;;4949099;29;20454;-25
2021/01/20 03:18:01;;;;;;;11.90;9.10;;;1.00;99.90;;;;;;4950241;29;20712;-26
2021/01/20 03:20:29;;;;;;;9.57;8.57;;;1.00;99.90;;;;;;4950305;28;20906;-26
2021/01/20 03:22:56;;;;;;;12.27;8.83;;;1.00;99.90;;;;;;4953141;29;20879;-25
2021/01/20 03:25:23;;;;;;;9.10;7.70;;;0.90;99.90;;;;;;4952995;29;20493;-25
2021/01/20 03:27:49;;;;;;;9.27;8.27;;;0.90;99.90;;;;;;4953311;29;20437;-26
2021/01/20 03:30:17;;;;;;;8.07;7.27;;;1.00;99.90;;;;;;4951241;29;20442;-26
2021/01/20 03:32:45;;;;;;;7.57;6.73;;;1.00;99.90;;;;;;4952427;29;20457;-26
2021/01/20 03:35:13;;;;;;;8.03;7.10;;;1.00;99.90;;;;;;4952476;29;20624;-25
2021/01/20 03:37:40;;;;;;;9.20;7.60;;;0.90;99.90;;;;;;4952063;29;20746;-26
2021/01/20 03:40:08;;;;;;;8.50;7.63;;;0.90;99.90;;;;;;4951680;29;20560;-25
2021/01/20 03:42:35;;;;;;;6.97;6.33;;;1.00;99.90;;;;;;4950491;29;20581;-26
2021/01/20 03:45:03;;;;;;;8.70;7.80;;;1.00;99.90;;;;;;4952893;29;20480;-26
2021/01/20 03:47:29;;;;;;;10.30;7.60;;;1.00;99.90;;;;;;4952572;29;20454;-25
2021/01/20 03:49:56;;;;;;;10.33;8.40;;;0.80;99.90;;;;;;4952629;29;20446;-26
2021/01/20 03:52:23;;;;;;;8.87;7.97;;;0.80;99.90;;;;;;4951862;29;20573;-26
2021/01/20 03:54:50;;;;;;;8.53;7.40;;;0.80;99.90;;;;;;4953131;29;20734;-26
2021/01/20 03:57:17;;;;;;;8.67;7.87;;;0.80;99.90;;;;;;4951950;29;20444;-25
2021/01/20 03:59:43;;;;;;;10.73;7.77;;;0.90;99.90;;;;;;4950818;29;21056;-26
2021/01/20 04:02:10;;;;;;;7.70;6.97;;;0.80;99.90;;;;;;4950401;29;20454;-26
2021/01/20 04:04:37;;;;;;;9.43;6.57;;;0.80;99.90;;;;;;4949803;29;20563;-25
2021/01/20 04:07:04;;;;;;;8.27;7.50;;;0.80;99.90;;;;;;4950823;29;20442;-26
2021/01/20 04:09:30;;;;;;;7.40;6.70;;;0.80;99.90;;;;;;4950887;29;20779;-25
2021/01/20 04:11:58;;;;;;;6.70;5.97;;;0.80;99.90;;;;;;4951636;29;20442;-26
2021/01/20 04:14:25;;;;;;;7.10;6.50;;;0.80;99.90;;;;;;4951713;29;20438;-25
2021/01/20 04:16:51;;;;;;;12.20;8.10;;;0.80;99.90;;;;;;4950383;29;20482;-27
2021/01/20 04:19:18;;;;;;;7.03;6.33;;;0.80;99.90;;;;;;4950996;29;20442;-26
2021/01/20 04:21:45;;;;;;;7.90;7.10;;;0.80;99.90;;;;;;4950191;29;20453;-26
2021/01/20 04:24:15;;;;;;;6.47;5.87;;;0.80;99.90;;;;;;4948759;29;20470;-26
2021/01/20 04:26:43;;;;;;;7.43;6.77;;;0.80;99.90;;;;;;4948918;29;20569;-26
2021/01/20 04:29:12;;;;;;;7.10;6.50;;;0.80;99.90;;;;;;4948001;29;20456;-26
2021/01/20 04:31:39;;;;;;;7.10;6.47;;;0.70;99.90;;;;;;4949779;28;20474;-25
2021/01/20 04:34:06;;;;;;;8.27;7.00;;;0.70;99.90;;;;;;4949423;29;20445;-26
2021/01/20 04:36:33;;;;;;;7.73;6.93;;;0.70;99.90;;;;;;4950410;29;20583;-26
2021/01/20 04:38:59;;;;;;;8.27;7.43;;;0.70;99.90;;;;;;4951185;29;20876;-26
2021/01/20 04:41:26;;;;;;;10.55;8.20;;;0.70;99.90;;;;;;4949900;29;20778;-25
2021/01/20 04:43:54;;;;;;;7.63;6.07;;;0.70;99.90;;;;;;4950271;29;20216;-26
2021/01/20 04:46:24;;;;;;;9.27;8.37;;;0.70;99.90;;;;;;4948627;29;20457;-26
2021/01/20 04:48:54;;;;;;;9.83;8.87;;;0.70;99.90;;;;;;4948324;29;20435;-25
2021/01/20 04:51:24;;;;;;;12.93;8.38;;;0.80;99.90;;;;;;4949797;29;20450;-26
2021/01/20 04:53:54;;;;;;;9.07;8.33;;;0.90;99.90;;;;;;4950690;29;20351;-25
2021/01/20 04:56:21;;;;;;;10.80;9.70;;;0.90;99.90;;;;;;4949685;29;20449;-26
2021/01/20 04:58:51;;;;;;;12.00;10.40;;;0.90;99.90;;;;;;4947547;29;20474;-25
2021/01/20 05:01:18;;;;;;;11.30;10.17;;;1.00;99.90;;;;;;4948813;29;20232;-25
2021/01/20 05:03:47;;;;;;;10.03;8.80;;;1.00;99.90;;;;;;4948118;29;20465;-25
2021/01/20 05:06:14;;;;;;;11.17;9.67;;;1.00;99.90;;;;;;4947983;29;21070;-26
2021/01/20 05:08:41;;;;;;;11.60;9.00;;;1.00;99.90;;;;;;4945140;29;20923;-25
2021/01/20 05:11:08;;;;;;;10.50;9.43;;;1.00;99.90;;;;;;4943500;29;20482;-26
2021/01/20 05:13:34;;;;;;;11.03;8.90;;;1.00;99.90;;;;;;4927642;29;20728;-26
2021/01/20 05:16:01;;;;;;;12.60;10.27;;;1.00;99.90;;;;;;4927241;29;20942;-26
2021/01/20 05:18:28;;;;;;;8.90;8.00;;;1.00;99.90;;;;;;4925087;29;20443;-25
2021/01/20 05:20:55;;;;;;;8.50;7.63;;;1.00;99.90;;;;;;4925542;29;20443;-26
2021/01/20 05:23:26;;;;;;;13.93;8.50;;;1.00;99.90;;;;;;4926049;29;20509;-25
2021/01/20 05:25:53;;;;;;;13.93;9.10;;;1.00;99.90;;;;;;4906694;29;20497;-26
2021/01/20 05:28:22;;;;;;;12.70;8.30;;;0.90;99.90;;;;;;4925774;29;20513;-27
2021/01/20 05:30:50;;;;;;;13.23;10.87;;;0.90;99.90;;;;;;4923354;29;20557;-26
2021/01/20 05:33:19;;;;;;;10.57;9.50;;;0.80;99.90;;;;;;4925308;29;20812;-26
2021/01/20 05:36:02;;;;;;;9.87;8.87;;;0.90;99.90;;;;;;4927462;29;20787;-26
2021/01/20 05:38:34;;;;;;;8.43;7.50;;;0.80;99.90;;;;;;4924000;29;20632;-26
2021/01/20 05:41:15;;;;;;;9.03;8.13;;;0.80;99.90;;;;;;4924824;29;20442;-25
2021/01/20 05:43:42;;;;;;;9.73;7.83;;;0.80;99.90;;;;;;4922826;29;20475;-26
2021/01/20 05:46:09;;;;;;;8.53;7.63;;;0.80;99.90;;;;;;4919844;29;20696;-26
2021/01/20 05:48:45;;;;;;;9.80;8.80;;;0.80;99.90;;;;;;4922706;29;20967;-25
2021/01/20 05:51:12;;;;;;;8.93;8.03;;;0.80;99.90;;;;;;4918486;29;20650;-25
2021/01/20 05:53:54;;;;;;;8.50;7.60;;;0.80;99.90;;;;;;4920987;29;20736;-26
2021/01/20 05:56:28;;;;;;;9.70;8.77;;;0.80;99.90;;;;;;4921195;29;20736;-25
2021/01/20 05:58:55;;;;;;;9.73;8.73;;;0.80;99.90;;;;;;4919593;29;20474;-25
2021/01/20 06:01:23;;;;;;;10.03;9.00;;;0.80;99.90;;;;;;4917754;29;20960;-26
2021/01/20 06:03:50;;;;;;;10.50;9.37;;;0.90;99.90;;;;;;4919398;29;20467;-26
2021/01/20 06:06:18;;;;;;;10.07;9.03;;;0.90;99.90;;;;;;4915966;29;20836;-25
2021/01/20 06:08:45;;;;;;;9.52;8.55;;;0.90;99.90;;;;;;4916529;29;20526;-25
2021/01/20 06:11:14;;;;;;;9.70;8.70;;;0.90;99.90;;;;;;4913598;29;20506;-25
2021/01/20 06:13:41;;;;;;;9.90;8.93;;;1.00;99.90;;;;;;4912760;29;20439;-25
2021/01/20 06:16:14;;;;;;;10.57;8.73;;;1.00;99.90;;;;;;4911181;29;20443;-25
2021/01/20 06:18:47;;;;;;;9.97;8.63;;;1.10;99.90;;;;;;4912317;29;20518;-26
2021/01/20 06:21:16;;;;;;;10.53;9.33;;;1.10;99.90;;;;;;4912412;29;20567;-25
2021/01/20 06:23:51;;;;;;;11.17;9.50;;;1.10;99.90;;;;;;4910229;29;20470;-25
2021/01/20 06:26:21;;;;;;;9.73;8.70;;;1.10;99.90;;;;;;4913180;29;20507;-26
2021/01/20 06:28:52;;;;;;;12.53;10.80;;;1.20;99.90;;;;;;4910507;29;20630;-25
2021/01/20 06:31:21;;;;;;;11.13;10.03;;;1.20;99.90;;;;;;4908357;29;20924;-25
2021/01/20 06:33:47;;;;;;;15.87;11.50;;;1.30;99.90;;;;;;4910784;29;20443;-26
2021/01/20 06:36:32;;;;;;;16.50;11.90;;;1.20;99.90;;;;;;4914474;29;20577;-26
2021/01/20 06:38:59;;;;;;;17.80;12.60;;;1.30;99.90;;;;;;4910728;29;20772;-26
2021/01/20 06:41:40;;;;;;;12.60;10.90;;;1.30;99.90;;;;;;4906536;29;20688;-26
2021/01/20 06:44:09;;;;;;;12.43;11.13;;;1.30;99.90;;;;;;4908253;29;20522;-26
2021/01/20 06:46:35;;;;;;;15.77;10.83;;;1.30;99.90;;;;;;4912525;29;20543;-25
2021/01/20 06:49:11;;;;;;;11.85;10.73;;;1.30;99.90;;;;;;4907334;29;20661;-26
2021/01/20 06:51:39;;;;;;;14.90;12.70;;;1.40;99.90;;;;;;4907212;29;20215;-26
2021/01/20 06:54:13;;;;;;;12.27;9.60;;;1.40;99.90;;;;;;4906473;29;20458;-25
2021/01/20 06:56:49;;;;;;;9.83;8.93;;;1.40;99.90;;;;;;4907267;29;20495;-26
2021/01/20 06:59:31;;;;;;;10.50;8.13;;;1.40;99.90;;;;;;4915265;29;20720;-25
2021/01/20 07:02:09;;;;;;;11.20;8.70;;;1.30;99.90;;;;;;4914369;29;20777;-25
2021/01/20 07:05:09;;;;;;;14.30;9.13;;;1.20;99.90;;;;;;4908652;29;20637;-25
2021/01/20 07:07:54;;;;;;;9.60;8.67;;;1.10;99.90;;;;;;4907378;29;20450;-25
2021/01/20 07:10:23;;;;;;;10.73;9.10;;;1.10;99.90;;;;;;4922188;28;20568;-25
2021/01/20 07:13:17;;;;;;;12.00;9.80;;;1.10;99.90;;;;;;4949703;28;20453;-25
2021/01/20 07:15:45;;;;;;;9.13;8.30;;;1.20;99.90;;;;;;4946870;28;21016;-25
2021/01/20 07:18:14;;;;;;;12.17;9.30;;;1.10;99.90;;;;;;4929157;28;20462;-25
2021/01/20 07:20:41;;;;;;;12.37;8.87;;;1.20;99.90;;;;;;4929943;29;21471;-25
2021/01/20 07:23:08;;;;;;;8.87;8.00;;;1.30;99.90;;;;;;4928035;29;20450;-25
2021/01/20 07:25:36;;;;;;;11.60;9.57;;;1.30;99.90;;;;;;4928746;29;20493;-25
2021/01/20 07:28:03;;;;;;;10.70;9.13;;;1.40;99.90;;;;;;4928311;29;20452;-25
2021/01/20 07:30:31;;;;;;;12.20;9.90;;;1.50;99.90;;;;;;4929087;29;20839;-25
2021/01/20 07:32:58;;;;;;;14.20;9.97;;;1.50;99.90;;;;;;4926057;29;20481;-25
2021/01/20 07:35:48;;;;;;;9.07;8.17;;;1.60;99.90;;;;;;4928303;29;20896;-25
2021/01/20 07:38:15;;;;;;;9.20;8.30;;;1.70;99.90;;;;;;4926627;29;20452;-25
2021/01/20 07:40:44;;;;;;;9.80;8.80;;;1.70;99.90;;;;;;4925079;29;21369;-25
2021/01/20 07:43:22;;;;;;;11.43;8.83;;;1.80;99.90;;;;;;4923548;29;20495;-25
2021/01/20 07:45:51;;;;;;;14.70;9.20;;;1.90;99.90;;;;;;4926686;29;20445;-25
2021/01/20 07:48:28;;;;;;;10.33;8.80;;;1.90;99.90;;;;;;4925662;28;20469;-25
2021/01/20 07:50:55;;;;;;;14.90;10.53;;;2.00;99.90;;;;;;4927883;29;20559;-25
2021/01/20 07:53:22;;;;;;;11.57;10.37;;;2.00;99.90;;;;;;4926471;29;20526;-26
2021/01/20 07:55:53;;;;;;;12.53;11.33;;;2.10;99.90;;;;;;4922508;29;20446;-26
2021/01/20 07:58:29;;;;;;;12.47;10.57;;;2.20;99.90;;;;;;4925726;29;21223;-26
2021/01/20 08:00:57;;;;;;;11.43;10.17;;;2.20;99.90;;;;;;4925879;29;20477;-25
2021/01/20 08:03:32;;;;;;;11.77;10.57;;;2.30;99.90;;;;;;4924704;28;20453;-25
2021/01/20 08:06:06;;;;;;;13.00;9.50;;;2.40;99.90;;;;;;4939898;28;20535;-25
2021/01/20 08:08:51;;;;;;;11.00;8.70;;;2.40;99.90;;;;;;4941829;28;20437;-25
2021/01/20 08:11:19;;;;;;;13.80;9.97;;;2.50;99.90;;;;;;4945108;28;20551;-26
2021/01/20 08:13:50;;;;;;;12.30;9.80;;;2.60;99.90;;;;;;4946094;28;20445;-26
2021/01/20 08:16:19;;;;;;;10.73;8.53;;;2.60;99.90;;;;;;4939677;28;20963;-25
2021/01/20 08:18:49;;;;;;;12.43;8.70;;;2.60;99.90;;;;;;4920118;29;20846;-26
2021/01/20 08:21:19;;;;;;;13.53;9.17;;;2.70;99.90;;;;;;4904185;29;21173;-25
2021/01/20 08:23:53;;;;;;;12.00;10.23;;;2.80;99.90;;;;;;4921994;29;20489;-26
2021/01/20 08:26:31;;;;;;;10.30;8.73;;;2.90;99.90;;;;;;4916860;28;20568;-26
2021/01/20 08:29:07;;;;;;;11.40;10.30;;;3.00;99.90;;;;;;4904984;29;21086;-26
2021/01/20 08:31:38;;;;;;;10.47;9.37;;;3.00;99.90;;;;;;4901359;29;20545;-26
2021/01/20 08:34:22;;;;;;;12.73;9.43;;;3.10;99.90;;;;;;4900515;29;20928;-26
2021/01/20 08:37:01;;;;;;;14.50;11.30;;;3.10;99.90;;;;;;4902261;29;20572;-25
2021/01/20 08:39:29;;;;;;;12.97;11.00;;;3.10;99.90;;;;;;4896109;29;20949;-25
2021/01/20 08:42:15;;;;;;;11.80;10.53;;;3.20;99.90;;;;;;4904204;29;20860;-26
2021/01/20 08:45:15;;;;;;;8.83;8.00;;;3.30;99.90;;;;;;4901652;29;20554;-26
2021/01/20 08:47:52;;;;;;;16.70;8.90;;;3.40;99.90;;;;;;4902368;29;20542;-26
2021/01/20 08:50:32;;;;;;;9.27;8.37;;;3.50;99.90;;;;;;4905144;29;20447;-26
2021/01/20 08:53:01;;;;;;;9.93;8.70;;;3.70;99.90;;;;;;4885788;29;20458;-26
2021/01/20 08:55:33;;;;;;;11.33;9.07;;;3.80;99.90;;;;;;4902201;29;20796;-26
2021/01/20 08:58:28;;;;;;;14.03;12.60;;;3.90;99.90;;;;;;4906672;29;20471;-26
2021/01/20 09:01:01;;;;;;;15.53;10.50;;;4.00;99.90;;;;;;4895695;29;20454;-26
2021/01/20 09:03:33;;;;;;;12.00;10.07;;;4.10;99.90;;;;;;4888473;29;20585;-26
2021/01/20 09:06:01;;;;;;;12.40;10.90;;;4.20;99.90;;;;;;4899184;29;20451;-26
2021/01/20 09:08:34;;;;;;;11.30;10.20;;;4.30;99.90;;;;;;4882629;29;20579;-26
2021/01/20 09:11:11;;;;;;;13.97;10.83;;;4.40;99.90;;;;;;4877623;29;21336;-26
2021/01/20 09:13:40;;;;;;;13.27;10.50;;;4.60;99.90;;;;;;4884089;29;20443;-26
2021/01/20 09:16:08;;;;;;;12.73;11.40;;;4.80;99.90;;;;;;4888126;29;20452;-26
2021/01/20 09:18:39;;;;;;;15.43;13.10;;;4.90;99.90;;;;;;4888370;29;20508;-26
2021/01/20 09:21:08;;;;;;;22.50;12.73;;;4.90;99.90;;;;;;4885962;29;20519;-25
2021/01/20 09:23:36;;;;;;;14.67;10.80;;;5.00;99.90;;;;;;4883811;29;20448;-26
2021/01/20 09:26:06;;;;;;;14.37;12.87;;;5.00;99.90;;;;;;4884407;29;20979;-26
2021/01/20 09:28:36;;;;;;;15.57;12.50;;;5.10;99.90;;;;;;4882505;29;20882;-26
2021/01/20 09:31:11;;;;;;;15.50;13.17;;;5.20;99.90;;;;;;4882259;29;21062;-25
2021/01/20 09:33:44;;;;;;;18.20;12.50;;;5.20;99.90;;;;;;4880227;29;20936;-25
2021/01/20 09:36:12;;;;;;;17.80;11.27;;;5.30;99.90;;;;;;4881917;29;20451;-25
2021/01/20 09:38:39;;;;;;;14.40;11.03;;;5.30;99.90;;;;;;4883048;29;20449;-25
2021/01/20 09:41:07;;;;;;;14.50;11.80;;;5.30;99.90;;;;;;4879285;29;21344;-25
2021/01/20 09:43:36;;;;;;;15.00;11.70;;;5.30;99.90;;;;;;4881773;29;21052;-25
2021/01/20 09:46:02;;;;;;;15.70;14.17;;;5.50;99.90;;;;;;4885061;29;20458;-26
2021/01/20 09:48:30;;;;;;;14.50;13.10;;;5.60;99.90;;;;;;4918490;29;20513;-25
2021/01/20 09:51:02;;;;;;;16.50;14.70;;;5.70;99.90;;;;;;4924664;29;20450;-25
2021/01/20 09:53:29;;;;;;;17.17;12.97;;;5.80;99.90;;;;;;4905393;29;20880;-25
2021/01/20 09:55:59;;;;;;;14.17;12.57;;;5.80;99.90;;;;;;4918655;29;21380;-25
2021/01/20 09:58:28;;;;;;;12.97;11.67;;;5.80;99.90;;;;;;4900351;29;20560;-26
2021/01/20 10:00:57;;;;;;;13.77;11.03;;;5.80;99.90;;;;;;4920354;29;20549;-26
2021/01/20 10:03:26;;;;;;;13.93;12.47;;;5.80;99.90;;;;;;4918421;29;20676;-26
2021/01/20 10:05:56;;;;;;;14.37;12.87;;;5.90;99.90;;;;;;4919886;29;20470;-25
2021/01/20 10:08:24;;;;;;;15.10;12.80;;;6.00;99.90;;;;;;4917849;29;20453;-26
2021/01/20 10:10:51;;;;;;;18.00;11.63;;;6.00;99.90;;;;;;4918201;29;20557;-26
2021/01/20 10:13:21;;;;;;;13.27;10.47;;;6.10;99.90;;;;;;4922766;29;20545;-25
2021/01/20 10:15:49;;;;;;;13.80;10.70;;;6.10;99.90;;;;;;4920273;29;20450;-26
2021/01/20 10:18:15;;;;;;;18.57;11.70;;;6.20;99.90;;;;;;4902782;29;20625;-26
2021/01/20 10:20:44;;;;;;;15.93;11.30;;;6.30;99.90;;;;;;4919101;29;20488;-26
2021/01/20 10:23:13;;;;;;;12.80;11.30;;;6.40;99.90;;;;;;4918611;28;20448;-25
2021/01/20 10:25:42;;;;;;;16.63;10.87;;;6.60;99.90;;;;;;4916116;29;20556;-26
2021/01/20 10:28:12;;;;;;;12.97;11.67;;;6.70;99.90;;;;;;4898015;29;20495;-26
2021/01/20 10:30:40;;;;;;;16.17;11.37;;;6.80;99.90;;;;;;4903304;29;21277;-26
2021/01/20 10:33:09;;;;;;;18.57;13.30;;;7.00;99.90;;;;;;4898115;29;20459;-26
2021/01/20 10:35:39;;;;;;;14.23;12.57;;;7.10;99.90;;;;;;4903484;29;20471;-26
2021/01/20 10:38:08;;;;;;;16.53;12.97;;;7.30;99.90;;;;;;4904738;29;20447;-26
2021/01/20 10:40:35;;;;;;;14.50;12.03;;;7.50;99.90;;;;;;4906763;29;20463;-26
2021/01/20 10:43:03;;;;;;;13.93;12.50;;;7.60;99.90;;;;;;4903735;29;20573;-26
2021/01/20 10:45:33;;;;;;;16.00;12.87;;;7.70;99.90;;;;;;4906470;29;20478;-26
2021/01/20 10:48:01;;;;;;;14.83;12.37;;;7.70;99.90;;;;;;4901732;29;20455;-26
2021/01/20 10:50:28;;;;;;;15.57;13.00;;;7.70;99.90;;;;;;4903898;29;20466;-26
2021/01/20 10:52:57;;;;;;;16.20;12.83;;;7.70;99.90;;;;;;4904735;29;20932;-26
2021/01/20 10:55:28;;;;;;;18.47;13.50;;;7.70;99.90;;;;;;4901136;29;20761;-25
2021/01/20 10:57:56;;;;;;;14.83;12.43;;;7.70;99.90;;;;;;4901217;29;20439;-25
2021/01/20 11:00:29;;;;;;;15.87;12.93;;;7.80;99.90;;;;;;4901271;29;20505;-25
2021/01/20 11:03:12;;;;;;;13.83;11.93;;;8.00;99.90;;;;;;4903205;29;21069;-25
2021/01/20 11:05:47;;;;;;;14.43;13.03;;;8.20;99.90;;;;;;4897107;29;20533;-25
2021/01/20 11:08:14;;;;;;;16.23;13.37;;;8.40;99.90;;;;;;4902288;29;20462;-25
2021/01/20 11:10:41;;;;;;;15.83;13.80;;;8.50;99.90;;;;;;4904937;29;21119;-25
2021/01/20 11:13:09;;;;;;;14.67;13.13;;;8.70;99.90;;;;;;4903051;29;20889;-25
2021/01/20 11:15:45;;;;;;;21.27;17.47;;;8.70;99.90;;;;;;4903641;29;20478;-25
2021/01/20 11:18:13;;;;;;;19.23;16.63;;;8.80;99.90;;;;;;4896728;29;20875;-26
2021/01/20 11:20:45;;;;;;;20.00;16.03;;;8.70;99.90;;;;;;4898820;29;20787;-25
2021/01/20 11:23:13;;;;;;;18.00;14.97;;;8.50;99.90;;;;;;4899167;29;22050;-25
2021/01/20 11:25:43;;;;;;;19.33;16.47;;;8.20;99.90;;;;;;4903774;29;20620;-25
2021/01/20 11:28:11;;;;;;;20.40;15.93;;;8.00;99.90;;;;;;4903330;29;20739;-25
2021/01/20 11:30:41;;;;;;;20.97;17.07;;;7.90;99.90;;;;;;4918666;29;20477;-25
2021/01/20 11:33:16;;;;;;;18.73;15.53;;;7.80;99.90;;;;;;4925357;29;20446;-25
2021/01/20 11:35:45;;;;;;;21.83;18.00;;;7.80;99.90;;;;;;4919074;29;20796;-25
2021/01/20 11:38:12;;;;;;;22.37;16.33;;;7.80;99.90;;;;;;4921414;29;20450;-25
2021/01/20 11:40:39;;;;;;;20.67;17.33;;;8.00;99.90;;;;;;4925665;28;20623;-25
2021/01/20 11:43:07;;;;;;;20.93;18.70;;;8.00;99.90;;;;;;4928545;29;20505;-25
2021/01/20 11:45:36;;;;;;;22.80;17.83;;;8.10;99.90;;;;;;4921330;29;20458;-25
2021/01/20 11:48:05;;;;;;;24.63;18.70;;;8.20;99.90;;;;;;4917757;29;20450;-25
2021/01/20 11:50:33;;;;;;;26.93;19.00;;;8.40;99.90;;;;;;4919764;29;20454;-25
2021/01/20 11:53:00;;;;;;;24.63;20.10;;;8.50;99.90;;;;;;4928228;29;20446;-25
2021/01/20 11:55:31;;;;;;;22.90;19.20;;;8.70;99.90;;;;;;4925805;29;20450;-25
2021/01/20 11:58:00;;;;;;;20.43;18.33;;;8.90;99.90;;;;;;4928070;29;20457;-25
2021/01/20 12:00:27;;;;;;;19.73;17.63;;;9.10;99.90;;;;;;4927545;28;20454;-25
2021/01/20 12:02:55;;;;;;;20.13;18.07;;;9.20;99.90;;;;;;4928742;29;20564;-25
2021/01/20 12:05:22;;;;;;;20.70;17.40;;;9.40;99.90;;;;;;4911504;29;20605;-25
2021/01/20 12:07:49;;;;;;;25.53;19.30;;;9.50;99.90;;;;;;4927380;29;20442;-25
2021/01/20 12:10:19;;;;;;;19.20;16.50;;;9.70;99.90;;;;;;4932252;29;20859;-25
2021/01/20 12:12:48;;;;;;;20.17;17.90;;;9.80;99.90;;;;;;4912324;29;20442;-25
2021/01/20 12:15:15;;;;;;;20.17;17.30;;;9.90;99.90;;;;;;4922844;29;20474;-25
2021/01/20 12:17:43;;;;;;;22.57;18.20;;;10.10;99.90;;;;;;4931592;29;20481;-25
2021/01/20 12:20:11;;;;;;;17.57;15.23;;;10.20;99.90;;;;;;4925013;29;20518;-25
2021/01/20 12:22:39;;;;;;;17.67;15.60;;;10.30;99.90;;;;;;4927992;29;20446;-25
2021/01/20 12:25:08;;;;;;;17.63;15.77;;;10.50;99.90;;;;;;4927432;29;20847;-26
2021/01/20 12:27:37;;;;;;;20.17;14.73;;;10.60;99.90;;;;;;4930961;29;20454;-26
2021/01/20 12:30:05;;;;;;;15.87;14.17;;;10.50;99.90;;;;;;4927650;29;20480;-26
2021/01/20 12:32:32;;;;;;;23.33;14.27;;;10.50;99.90;;;;;;4925699;28;20454;-25
2021/01/20 12:34:59;;;;;;;10.47;9.47;;;10.50;99.90;;;;;;4925017;29;20501;-25
2021/01/20 12:37:26;;;;;;;13.30;11.90;;;10.50;99.90;;;;;;4928022;29;20438;-25
2021/01/20 12:39:54;;;;;;;15.50;10.50;;;10.60;99.90;;;;;;4927536;29;20585;-26
2021/01/20 12:42:21;;;;;;;9.87;8.67;;;10.60;99.90;;;;;;4928913;29;20453;-25
2021/01/20 12:44:48;;;;;;;6.53;5.93;;;10.50;99.90;;;;;;4929137;28;20558;-25
2021/01/20 12:47:16;;;;;;;9.80;8.50;;;10.60;99.90;;;;;;4927394;29;20489;-26
2021/01/20 12:49:43;;;;;;;11.33;8.57;;;10.60;99.90;;;;;;4926949;29;20523;-26
2021/01/20 12:52:10;;;;;;;15.27;12.10;;;10.60;99.90;;;;;;4920378;28;20446;-25
2021/01/20 12:54:37;;;;;;;7.87;7.10;;;10.70;99.90;;;;;;4927029;29;20535;-26
2021/01/20 12:57:05;;;;;;;6.20;5.70;;;10.80;99.90;;;;;;4926015;29;20541;-26
2021/01/20 12:59:32;;;;;;;6.60;6.03;;;10.90;98.70;;;;;;4929447;29;20461;-26
2021/01/20 13:01:59;;;;;;;5.13;4.83;;;11.00;98.90;;;;;;4929557;29;20514;-26
2021/01/20 13:04:27;;;;;;;4.90;4.60;;;11.10;99.00;;;;;;4923880;29;20758;-26